Time,TemperatureF,DewpointF,PressureIn,WindDirection,WindDirectionDegrees,WindSpeedMPH,WindSpeedGustMPH,Humidity,HourlyPrecipIn,Conditions,Clouds,dailyrainin,SolarRadiationWatts/m^2,SoftwareType,DateUTC
2013-08-01 00:01:00,71.9,65.7,29.90,ESE,104,0.0,0.0,81,0.00,,,0.00,0,WeatherCatV1.21B27,2013-08-01 04:01:00,
2013-08-01 00:02:00,71.9,65.7,29.90,ESE,104,0.0,0.0,81,0.00,,,0.00,0,WeatherCatV1.21B27,2013-08-01 04:02:00,
2013-08-01 00:07:00,71.8,65.6,29.90,East,92,1.0,4.0,81,0.00,,,0.00,0,WeatherCatV1.21B27,2013-08-01 04:07:00,
2013-08-01 00:12:00,71.7,65.9,29.90,SE,134,0.0,2.0,82,0.00,,,0.00,0,WeatherCatV1.21B27,2013-08-01 04:12:00,
2013-08-01 00:17:00,71.6,65.8,29.90,East,96,0.0,1.0,82,0.00,,,0.00,0,WeatherCatV1.21B27,2013-08-01 04:17:00,
2013-08-01 00:22:00,71.4,66.0,29.90,SE,132,0.0,1.0,83,0.00,,,0.00,0,WeatherCatV1.21B27,2013-08-01 04:22:00,
2013-08-01 00:27:00,71.3,65.9,29.90,ESE,123,2.0,2.0,83,0.00,,,0.00,0,WeatherCatV1.21B27,2013-08-01 04:27:00,
2013-08-01 00:32:00,71.2,66.1,29.90,SE,130,0.0,1.0,84,0.00,,,0.00,0,WeatherCatV1.21B27,2013-08-01 04:32:00,
2013-08-01 00:37:00,71.2,66.1,29.90,SSE,148,0.0,0.0,84,0.00,,,0.00,0,WeatherCatV1.21B27,2013-08-01 04:37:00,
2013-08-01 00:42:00,71.1,66.3,29.89,SSE,148,0.0,1.0,85,0.00,,,0.00,0,WeatherCatV1.21B27,2013-08-01 04:42:00,
2013-08-01 00:47:00,71.2,66.4,29.89,SE,144,0.0,0.0,85,0.00,,,0.00,0,WeatherCatV1.21B27,2013-08-01 04:47:00,
2013-08-01 00:52:00,71.2,66.4,29.89,SE,146,0.0,0.0,85,0.00,,,0.00,0,WeatherCatV1.21B27,2013-08-01 04:52:00,
2013-08-01 00:57:00,71.2,66.4,29.89,ESE,109,1.0,2.0,85,0.00,,,0.00,0,WeatherCatV1.21B27,2013-08-01 04:57:00,
2013-08-01 01:02:00,71.2,66.4,29.89,ESE,110,0.0,2.0,85,0.00,,,0.00,0,WeatherCatV1.21B27,2013-08-01 05:02:00,
2013-08-01 01:07:00,71.2,66.4,29.89,East,82,0.0,1.0,85,0.00,,,0.00,0,WeatherCatV1.21B27,2013-08-01 05:07:00,
2013-08-01 01:12:00,71.2,66.4,29.89,SSE,150,1.0,2.0,85,0.00,,,0.00,0,WeatherCatV1.21B27,2013-08-01 05:12:00,
2013-08-01 01:17:00,71.3,66.6,29.89,SE,146,1.0,4.0,85,0.00,,,0.00,0,WeatherCatV1.21B27,2013-08-01 05:17:00,
2013-08-01 01:22:00,71.3,66.6,29.88,SE,136,2.0,2.0,85,0.00,,,0.00,0,WeatherCatV1.21B27,2013-08-01 05:22:00,
2013-08-01 01:27:00,71.3,66.6,29.88,East,80,3.0,5.0,85,0.00,,,0.00,0,WeatherCatV1.21B27,2013-08-01 05:27:00,
2013-08-01 01:32:00,71.3,66.6,29.88,ESE,118,0.0,0.0,85,0.00,,,0.00,0,WeatherCatV1.21B27,2013-08-01 05:32:00,
2013-08-01 01:37:00,71.2,66.4,29.88,ESE,108,0.0,2.0,85,0.00,,,0.00,0,WeatherCatV1.21B27,2013-08-01 05:37:00,
2013-08-01 01:42:00,71.2,66.4,29.88,ESE,117,1.0,2.0,85,0.00,,,0.00,0,WeatherCatV1.21B27,2013-08-01 05:42:00,
2013-08-01 01:47:00,71.1,66.3,29.88,SE,128,0.0,1.0,85,0.00,,,0.00,0,WeatherCatV1.21B27,2013-08-01 05:47:00,
2013-08-01 01:52:00,71.0,66.2,29.88,SE,146,1.0,2.0,85,0.00,,,0.00,0,WeatherCatV1.21B27,2013-08-01 05:52:00,
2013-08-01 01:57:00,71.0,66.2,29.87,SE,130,0.0,1.0,85,0.00,,,0.00,0,WeatherCatV1.21B27,2013-08-01 05:57:00,
2013-08-01 02:02:00,71.0,66.2,29.87,East,92,0.0,1.0,85,0.00,,,0.00,0,WeatherCatV1.21B27,2013-08-01 06:02:00,
2013-08-01 02:07:00,71.0,66.2,29.87,SE,136,0.0,1.0,85,0.00,,,0.00,0,WeatherCatV1.21B27,2013-08-01 06:07:00,
2013-08-01 02:12:00,71.0,66.2,29.87,SE,129,0.0,1.0,85,0.00,,,0.00,0,WeatherCatV1.21B27,2013-08-01 06:12:00,
2013-08-01 02:17:00,71.1,66.3,29.87,SE,130,0.0,1.0,85,0.00,,,0.00,0,WeatherCatV1.21B27,2013-08-01 06:17:00,
2013-08-01 02:22:00,71.0,66.2,29.87,SE,135,1.0,1.0,85,0.00,,,0.00,0,WeatherCatV1.21B27,2013-08-01 06:22:00,
2013-08-01 02:27:00,71.0,66.2,29.86,SE,138,1.0,1.0,85,0.00,,,0.00,0,WeatherCatV1.21B27,2013-08-01 06:27:00,
2013-08-01 02:32:00,71.0,66.6,29.86,SSW,206,0.0,1.0,86,0.00,,,0.00,0,WeatherCatV1.21B27,2013-08-01 06:32:00,
2013-08-01 02:37:00,71.0,66.6,29.86,ESE,121,0.0,0.0,86,0.00,,,0.00,0,WeatherCatV1.21B27,2013-08-01 06:37:00,
2013-08-01 02:42:00,71.0,66.6,29.86,SE,134,1.0,1.0,86,0.00,,,0.00,0,WeatherCatV1.21B27,2013-08-01 06:42:00,
2013-08-01 02:47:00,71.0,66.2,29.86,ESE,115,0.0,0.0,85,0.00,,,0.00,0,WeatherCatV1.21B27,2013-08-01 06:47:00,
2013-08-01 02:52:00,70.9,66.5,29.86,SE,132,0.0,0.0,86,0.00,,,0.00,0,WeatherCatV1.21B27,2013-08-01 06:52:00,
2013-08-01 02:57:00,70.9,66.5,29.85,SE,129,0.0,1.0,86,0.00,,,0.00,0,WeatherCatV1.21B27,2013-08-01 06:57:00,
2013-08-01 03:02:00,70.8,66.4,29.85,SE,142,0.0,0.0,86,0.00,,,0.00,0,WeatherCatV1.21B27,2013-08-01 07:02:00,
2013-08-01 03:07:00,70.8,66.4,29.85,SSE,150,0.0,0.0,86,0.00,,,0.00,0,WeatherCatV1.21B27,2013-08-01 07:07:00,
2013-08-01 03:12:00,70.8,66.4,29.85,SE,141,0.0,0.0,86,0.00,,,0.00,0,WeatherCatV1.21B27,2013-08-01 07:12:00,
2013-08-01 03:17:00,70.7,66.0,29.85,SE,141,1.0,1.0,85,0.00,,,0.00,0,WeatherCatV1.21B27,2013-08-01 07:17:00,
2013-08-01 03:22:00,70.7,66.3,29.85,SE,134,0.0,1.0,86,0.00,,,0.00,0,WeatherCatV1.21B27,2013-08-01 07:22:00,
2013-08-01 03:27:00,70.8,66.1,29.85,ESE,113,1.0,4.0,85,0.00,,,0.00,0,WeatherCatV1.21B27,2013-08-01 07:27:00,
2013-08-01 03:32:00,70.9,66.2,29.84,SE,126,2.0,2.0,85,0.00,,,0.00,0,WeatherCatV1.21B27,2013-08-01 07:32:00,
2013-08-01 03:37:00,70.9,66.2,29.84,SE,136,0.0,2.0,85,0.00,,,0.00,0,WeatherCatV1.21B27,2013-08-01 07:37:00,
2013-08-01 03:42:00,71.0,66.2,29.84,SSE,157,0.0,2.0,85,0.00,,,0.00,0,WeatherCatV1.21B27,2013-08-01 07:42:00,
2013-08-01 03:47:00,71.0,65.9,29.84,SE,131,0.0,1.0,84,0.00,,,0.00,0,WeatherCatV1.21B27,2013-08-01 07:47:00,
2013-08-01 03:52:00,70.9,65.8,29.84,SE,133,2.0,4.0,84,0.00,,,0.00,0,WeatherCatV1.21B27,2013-08-01 07:52:00,
2013-08-01 03:57:00,71.0,65.9,29.83,SE,140,1.0,2.0,84,0.00,,,0.00,0,WeatherCatV1.21B27,2013-08-01 07:57:00,
2013-08-01 04:02:00,71.0,65.9,29.83,East,81,1.0,4.0,84,0.00,,,0.00,0,WeatherCatV1.21B27,2013-08-01 08:02:00,
2013-08-01 04:07:00,71.0,65.9,29.83,ESE,121,1.0,4.0,84,0.00,,,0.00,0,WeatherCatV1.21B27,2013-08-01 08:07:00,
2013-08-01 04:12:00,71.1,66.0,29.83,SE,138,0.0,2.0,84,0.00,,,0.00,0,WeatherCatV1.21B27,2013-08-01 08:12:00,
2013-08-01 04:17:00,71.0,65.9,29.83,SE,126,0.0,4.0,84,0.00,,,0.00,0,WeatherCatV1.21B27,2013-08-01 08:17:00,
2013-08-01 04:22:00,71.0,65.9,29.83,SE,130,1.0,4.0,84,0.00,,,0.00,0,WeatherCatV1.21B27,2013-08-01 08:22:00,
2013-08-01 04:27:00,71.1,65.7,29.83,ESE,121,0.0,2.0,83,0.00,,,0.00,0,WeatherCatV1.21B27,2013-08-01 08:27:00,
2013-08-01 04:32:00,71.1,66.0,29.83,SSE,148,0.0,2.0,84,0.00,,,0.00,0,WeatherCatV1.21B27,2013-08-01 08:32:00,
2013-08-01 04:37:00,71.2,65.8,29.83,SSE,148,1.0,4.0,83,0.00,,,0.00,0,WeatherCatV1.21B27,2013-08-01 08:37:00,
2013-08-01 04:42:00,71.1,66.0,29.83,SE,142,0.0,1.0,84,0.00,,,0.00,0,WeatherCatV1.21B27,2013-08-01 08:42:00,
2013-08-01 04:47:00,71.1,66.0,29.83,South,177,0.0,2.0,84,0.00,,,0.00,0,WeatherCatV1.21B27,2013-08-01 08:47:00,
2013-08-01 04:49:00,71.0,65.9,29.83,SE,137,0.0,1.0,84,0.00,,,0.00,0,WeatherCatV1.21B27,2013-08-01 08:49:00,
2013-08-01 04:51:00,71.0,65.9,29.83,SE,136,1.0,2.0,84,0.00,,,0.00,0,WeatherCatV1.21B27,2013-08-01 08:51:00,
2013-08-01 04:58:00,71.0,65.9,29.83,East,94,1.0,2.0,84,0.00,,,0.00,0,WeatherCatV1.21B27,2013-08-01 08:58:00,
2013-08-01 05:03:00,71.0,65.9,29.83,SSE,150,0.0,1.0,84,0.00,,,0.00,0,WeatherCatV1.21B27,2013-08-01 09:03:00,
2013-08-01 05:08:00,71.0,65.6,29.83,SE,144,0.0,4.0,83,0.00,,,0.00,0,WeatherCatV1.21B27,2013-08-01 09:08:00,
2013-08-01 05:13:00,71.0,65.2,29.83,SE,139,0.0,1.0,82,0.00,,,0.00,0,WeatherCatV1.21B27,2013-08-01 09:13:00,
2013-08-01 05:18:00,71.1,65.3,29.83,SE,133,0.0,1.0,82,0.00,,,0.00,0,WeatherCatV1.21B27,2013-08-01 09:18:00,
2013-08-01 05:23:00,71.0,65.2,29.83,SE,133,0.0,0.0,82,0.00,,,0.00,0,WeatherCatV1.21B27,2013-08-01 09:23:00,
2013-08-01 05:28:00,71.0,65.2,29.83,SSE,148,0.0,2.0,82,0.00,,,0.00,0,WeatherCatV1.21B27,2013-08-01 09:28:00,
2013-08-01 05:33:00,71.0,65.6,29.83,SSE,168,0.0,0.0,83,0.00,,,0.00,0,WeatherCatV1.21B27,2013-08-01 09:33:00,
2013-08-01 05:38:00,70.9,65.5,29.83,ESE,119,0.0,1.0,83,0.00,,,0.00,0,WeatherCatV1.21B27,2013-08-01 09:38:00,
2013-08-01 05:43:00,70.8,65.7,29.83,ESE,119,0.0,1.0,84,0.00,,,0.00,0,WeatherCatV1.21B27,2013-08-01 09:43:00,
2013-08-01 05:48:00,70.8,65.4,29.83,South,191,0.0,1.0,83,0.00,,,0.00,0,WeatherCatV1.21B27,2013-08-01 09:48:00,
2013-08-01 05:53:00,70.8,65.0,29.83,SSE,156,2.0,2.0,82,0.00,,,0.00,0,WeatherCatV1.21B27,2013-08-01 09:53:00,
2013-08-01 05:58:00,70.8,65.0,29.83,ESE,115,0.0,4.0,82,0.00,,,0.00,0,WeatherCatV1.21B27,2013-08-01 09:58:00,
2013-08-01 06:03:00,70.8,65.0,29.83,SSE,148,2.0,2.0,82,0.00,,,0.00,0,WeatherCatV1.21B27,2013-08-01 10:03:00,
2013-08-01 06:08:00,70.8,65.0,29.83,SE,128,0.0,2.0,82,0.00,,,0.00,0,WeatherCatV1.21B27,2013-08-01 10:08:00,
2013-08-01 06:13:00,70.8,65.0,29.83,SE,128,0.0,0.0,82,0.00,,,0.00,0,WeatherCatV1.21B27,2013-08-01 10:13:00,
2013-08-01 06:18:00,70.7,65.3,29.83,SE,126,0.0,0.0,83,0.00,,,0.00,5,WeatherCatV1.21B27,2013-08-01 10:18:00,
2013-08-01 06:23:00,70.7,65.3,29.83,SE,137,0.0,1.0,83,0.00,,,0.00,7,WeatherCatV1.21B27,2013-08-01 10:23:00,
2013-08-01 06:28:00,70.6,65.5,29.83,SE,146,0.0,2.0,84,0.00,,,0.00,9,WeatherCatV1.21B27,2013-08-01 10:28:00,
2013-08-01 06:33:00,70.5,65.4,29.83,SW,232,1.0,2.0,84,0.00,,,0.00,9,WeatherCatV1.21B27,2013-08-01 10:33:00,
2013-08-01 06:38:00,70.3,65.6,29.83,SSE,149,0.0,0.0,85,0.00,,,0.00,9,WeatherCatV1.21B27,2013-08-01 10:38:00,
2013-08-01 06:43:00,70.1,65.7,29.83,SSE,168,1.0,4.0,86,0.00,,,0.00,19,WeatherCatV1.21B27,2013-08-01 10:43:00,
2013-08-01 06:48:00,70.3,65.6,29.83,SE,141,2.0,4.0,85,0.00,,,0.00,32,WeatherCatV1.21B27,2013-08-01 10:48:00,
2013-08-01 06:53:00,70.5,65.4,29.83,SE,142,0.0,1.0,84,0.00,,,0.00,32,WeatherCatV1.21B27,2013-08-01 10:53:00,
2013-08-01 06:58:00,70.7,65.6,29.83,SE,136,0.0,0.0,84,0.00,,,0.00,37,WeatherCatV1.21B27,2013-08-01 10:58:00,
2013-08-01 07:03:00,70.8,65.7,29.83,SE,136,0.0,0.0,84,0.00,,,0.00,30,WeatherCatV1.21B27,2013-08-01 11:03:00,
2013-08-01 07:08:00,70.8,65.7,29.83,SE,146,0.0,2.0,84,0.00,,,0.00,18,WeatherCatV1.21B27,2013-08-01 11:08:00,
2013-08-01 07:13:00,70.6,65.9,29.83,ESE,108,0.0,0.0,85,0.00,,,0.00,18,WeatherCatV1.21B27,2013-08-01 11:13:00,
2013-08-01 07:18:00,70.4,65.7,29.83,SSE,148,1.0,2.0,85,0.00,,,0.00,33,WeatherCatV1.21B27,2013-08-01 11:18:00,
2013-08-01 07:23:00,70.7,66.0,29.83,SE,127,0.0,1.0,85,0.00,,,0.00,60,WeatherCatV1.21B27,2013-08-01 11:23:00,
2013-08-01 07:28:00,70.8,66.7,29.83,SE,127,0.0,0.0,87,0.00,,,0.00,81,WeatherCatV1.21B27,2013-08-01 11:28:00,
2013-08-01 07:33:00,71.2,66.4,29.83,SE,130,0.0,5.0,85,0.00,,,0.00,74,WeatherCatV1.21B27,2013-08-01 11:33:00,
2013-08-01 07:38:00,71.5,66.4,29.83,SE,125,0.0,0.0,84,0.00,,,0.00,49,WeatherCatV1.21B27,2013-08-01 11:38:00,
2013-08-01 07:43:00,71.7,66.6,29.83,ESE,117,0.0,5.0,84,0.00,,,0.00,51,WeatherCatV1.21B27,2013-08-01 11:43:00,
2013-08-01 07:48:00,71.9,66.8,29.83,SE,142,0.0,0.0,84,0.00,,,0.00,54,WeatherCatV1.21B27,2013-08-01 11:48:00,
2013-08-01 07:53:00,71.9,66.8,29.83,SSE,155,0.0,3.0,84,0.00,,,0.00,70,WeatherCatV1.21B27,2013-08-01 11:53:00,
2013-08-01 07:58:00,72.1,67.0,29.83,ESE,110,0.0,2.0,84,0.00,,,0.00,76,WeatherCatV1.21B27,2013-08-01 11:58:00,
2013-08-01 08:03:00,72.2,67.1,29.83,ESE,111,5.0,6.0,84,0.00,,,0.00,63,WeatherCatV1.21B27,2013-08-01 12:03:00,
2013-08-01 08:08:00,72.5,67.4,29.83,SE,128,0.0,4.0,84,0.00,,,0.00,127,WeatherCatV1.21B27,2013-08-01 12:08:00,
2013-08-01 08:13:00,73.0,67.5,29.83,SSW,199,1.0,2.0,83,0.00,,,0.00,134,WeatherCatV1.21B27,2013-08-01 12:13:00,
2013-08-01 08:18:00,73.2,67.4,29.83,ESE,111,4.0,4.0,82,0.00,,,0.00,53,WeatherCatV1.21B27,2013-08-01 12:18:00,
2013-08-01 08:23:00,73.2,67.7,29.83,ESE,119,1.0,4.0,83,0.00,,,0.00,35,WeatherCatV1.21B27,2013-08-01 12:23:00,
2013-08-01 08:28:00,73.0,67.9,29.83,SE,135,2.0,5.0,84,0.00,,,0.00,56,WeatherCatV1.21B27,2013-08-01 12:28:00,
2013-08-01 08:33:00,73.0,67.9,29.83,East,90,0.0,4.0,84,0.00,,,0.00,69,WeatherCatV1.21B27,2013-08-01 12:33:00,
2013-08-01 08:38:00,73.1,68.0,29.83,ESE,111,1.0,4.0,84,0.00,,,0.00,67,WeatherCatV1.21B27,2013-08-01 12:38:00,
2013-08-01 08:43:00,73.5,68.4,29.82,East,83,0.0,2.0,84,0.00,,,0.00,86,WeatherCatV1.21B27,2013-08-01 12:43:00,
2013-08-01 08:48:00,73.7,67.8,29.82,SE,132,2.0,2.0,82,0.00,,,0.00,118,WeatherCatV1.21B27,2013-08-01 12:48:00,
2013-08-01 08:53:00,74.0,68.1,29.82,ESE,111,2.0,6.0,82,0.00,,,0.00,132,WeatherCatV1.21B27,2013-08-01 12:53:00,
2013-08-01 08:58:00,74.1,68.2,29.82,East,101,0.0,4.0,82,0.00,,,0.00,148,WeatherCatV1.21B27,2013-08-01 12:58:00,
2013-08-01 09:03:00,74.2,68.0,29.82,ESE,123,0.0,5.0,81,0.00,,,0.00,144,WeatherCatV1.21B27,2013-08-01 13:03:00,
2013-08-01 09:08:00,74.5,68.6,29.82,East,86,1.0,4.0,82,0.00,,,0.00,169,WeatherCatV1.21B27,2013-08-01 13:08:00,
2013-08-01 09:13:00,74.5,68.6,29.82,WSW,252,0.0,8.0,82,0.00,,,0.00,141,WeatherCatV1.21B27,2013-08-01 13:13:00,
2013-08-01 09:18:00,74.5,68.3,29.81,ESE,105,1.0,4.0,81,0.00,,,0.00,113,WeatherCatV1.21B27,2013-08-01 13:18:00,
2013-08-01 09:23:00,74.4,67.8,29.81,SE,130,1.0,7.0,80,0.00,,,0.00,120,WeatherCatV1.21B27,2013-08-01 13:23:00,
2013-08-01 09:28:00,74.4,67.8,29.81,ESE,115,0.0,5.0,80,0.00,,,0.00,216,WeatherCatV1.21B27,2013-08-01 13:28:00,
2013-08-01 09:33:00,74.7,68.1,29.81,ESE,111,5.0,6.0,80,0.00,,,0.00,167,WeatherCatV1.21B27,2013-08-01 13:33:00,
2013-08-01 09:38:00,74.8,67.8,29.81,SE,130,2.0,6.0,79,0.00,,,0.00,155,WeatherCatV1.21B27,2013-08-01 13:38:00,
2013-08-01 09:43:00,74.8,67.8,29.81,East,94,4.0,6.0,79,0.00,,,0.00,142,WeatherCatV1.21B27,2013-08-01 13:43:00,
2013-08-01 09:48:00,74.7,66.6,29.81,East,87,2.0,9.0,76,0.00,,,0.00,104,WeatherCatV1.21B27,2013-08-01 13:48:00,
2013-08-01 09:53:00,74.6,66.9,29.81,ESE,107,1.0,5.0,77,0.00,,,0.00,130,WeatherCatV1.21B27,2013-08-01 13:53:00,
2013-08-01 09:58:00,74.5,66.8,29.81,SE,136,1.0,5.0,77,0.00,,,0.00,153,WeatherCatV1.21B27,2013-08-01 13:58:00,
2013-08-01 10:03:00,74.8,67.1,29.81,East,101,0.0,4.0,77,0.00,,,0.00,158,WeatherCatV1.21B27,2013-08-01 14:03:00,
2013-08-01 10:08:00,74.9,67.6,29.81,ESE,105,1.0,2.0,78,0.00,,,0.00,134,WeatherCatV1.21B27,2013-08-01 14:08:00,
2013-08-01 10:13:00,74.9,66.8,29.81,East,98,1.0,5.0,76,0.00,,,0.00,178,WeatherCatV1.21B27,2013-08-01 14:13:00,
2013-08-01 10:18:00,74.8,66.7,29.81,East,90,4.0,8.0,76,0.00,,,0.00,132,WeatherCatV1.21B27,2013-08-01 14:18:00,
2013-08-01 10:23:00,74.8,66.7,29.81,East,101,2.0,5.0,76,0.00,,,0.00,102,WeatherCatV1.21B27,2013-08-01 14:23:00,
2013-08-01 10:28:00,74.6,66.9,29.81,ESE,103,1.0,5.0,77,0.00,,,0.00,120,WeatherCatV1.21B27,2013-08-01 14:28:00,
2013-08-01 10:33:00,74.2,67.2,29.81,WSW,244,1.0,4.0,79,0.00,,,0.00,132,WeatherCatV1.21B27,2013-08-01 14:33:00,
2013-08-01 10:38:00,73.7,66.8,29.81,ENE,71,1.0,2.0,79,0.00,,,0.00,206,WeatherCatV1.21B27,2013-08-01 14:38:00,
2013-08-01 10:43:00,73.8,67.2,29.81,East,96,0.0,7.0,80,0.00,,,0.00,227,WeatherCatV1.21B27,2013-08-01 14:43:00,
2013-08-01 10:48:00,74.0,67.1,29.81,SE,125,0.0,6.0,79,0.00,,,0.00,195,WeatherCatV1.21B27,2013-08-01 14:48:00,
2013-08-01 10:53:00,74.4,67.1,29.80,SSW,212,4.0,4.0,78,0.00,,,0.00,232,WeatherCatV1.21B27,2013-08-01 14:53:00,
2013-08-01 10:58:00,74.6,66.9,29.80,ESE,119,5.0,6.0,77,0.00,,,0.00,178,WeatherCatV1.21B27,2013-08-01 14:58:00,
2013-08-01 11:03:00,74.4,66.3,29.80,ESE,105,2.0,6.0,76,0.00,,,0.00,176,WeatherCatV1.21B27,2013-08-01 15:03:00,
2013-08-01 11:08:00,74.4,64.4,29.80,SE,134,1.0,11.0,71,0.00,,,0.00,141,WeatherCatV1.21B27,2013-08-01 15:08:00,
2013-08-01 11:13:00,74.2,65.8,29.81,NNW,348,0.0,3.0,75,0.00,,,0.00,139,WeatherCatV1.21B27,2013-08-01 15:13:00,
2013-08-01 11:18:00,73.8,66.5,29.80,ESE,105,0.0,7.0,78,0.00,,,0.00,160,WeatherCatV1.21B27,2013-08-01 15:18:00,
2013-08-01 11:23:00,73.6,66.3,29.80,SW,227,0.0,6.0,78,0.00,,,0.00,128,WeatherCatV1.21B27,2013-08-01 15:23:00,
2013-08-01 11:28:00,73.3,65.6,29.81,WSW,238,4.0,8.0,77,0.00,,,0.00,93,WeatherCatV1.21B27,2013-08-01 15:28:00,
2013-08-01 11:33:00,73.0,65.7,29.81,SE,144,1.0,9.0,78,0.00,,,0.00,77,WeatherCatV1.21B27,2013-08-01 15:33:00,
2013-08-01 11:38:00,72.9,65.6,29.81,SE,139,0.0,6.0,78,0.00,,,0.00,83,WeatherCatV1.21B27,2013-08-01 15:38:00,
2013-08-01 11:43:00,72.6,63.8,29.80,South,181,2.0,8.0,74,0.00,,,0.00,109,WeatherCatV1.21B27,2013-08-01 15:43:00,
2013-08-01 11:48:00,72.3,62.8,29.81,SSE,163,0.0,4.0,72,0.00,,,0.00,69,WeatherCatV1.21B27,2013-08-01 15:48:00,
2013-08-01 11:53:00,72.0,62.1,29.81,WNW,282,2.0,7.0,71,0.00,,,0.00,74,WeatherCatV1.21B27,2013-08-01 15:53:00,
2013-08-01 11:58:00,71.7,62.2,29.81,East,90,0.0,4.0,72,0.00,,,0.00,58,WeatherCatV1.21B27,2013-08-01 15:58:00,
2013-08-01 12:03:00,71.4,63.0,29.81,SW,232,0.0,3.0,75,0.00,,,0.00,40,WeatherCatV1.21B27,2013-08-01 16:03:00,
2013-08-01 12:08:00,71.1,63.5,29.81,WSW,257,0.0,6.0,77,0.00,,,0.00,67,WeatherCatV1.21B27,2013-08-01 16:08:00,
2013-08-01 12:13:00,70.8,64.7,29.80,ESE,109,2.0,5.0,81,0.00,,,0.00,81,WeatherCatV1.21B27,2013-08-01 16:13:00,
2013-08-01 12:18:00,70.2,65.1,29.80,ESE,110,2.0,2.0,84,0.00,,,0.00,90,WeatherCatV1.21B27,2013-08-01 16:18:00,
2013-08-01 12:23:00,69.9,65.5,29.80,WSW,238,1.0,3.0,86,0.00,,,0.00,39,WeatherCatV1.21B27,2013-08-01 16:23:00,
2013-08-01 12:28:00,69.7,66.0,29.80,East,98,0.0,0.0,88,0.00,,,0.00,72,WeatherCatV1.21B27,2013-08-01 16:28:00,
2013-08-01 12:33:00,69.7,66.3,29.80,East,98,0.0,0.0,89,0.00,,,0.00,67,WeatherCatV1.21B27,2013-08-01 16:33:00,
2013-08-01 12:38:00,69.8,66.4,29.80,SE,130,0.0,0.0,89,0.00,,,0.00,58,WeatherCatV1.21B27,2013-08-01 16:38:00,
2013-08-01 12:43:00,70.0,66.6,29.79,SE,130,0.0,0.0,89,0.00,,,0.00,40,WeatherCatV1.21B27,2013-08-01 16:43:00,
2013-08-01 12:48:00,70.1,67.0,29.79,SE,130,0.0,0.0,90,0.00,,,0.00,26,WeatherCatV1.21B27,2013-08-01 16:48:00,
2013-08-01 12:53:00,70.1,67.0,29.79,SE,130,0.0,0.0,90,0.00,,,0.00,21,WeatherCatV1.21B27,2013-08-01 16:53:00,
2013-08-01 12:58:00,70.2,67.4,29.78,SE,130,0.0,0.0,91,0.00,,,0.00,44,WeatherCatV1.21B27,2013-08-01 16:58:00,
2013-08-01 13:03:00,70.2,67.8,29.78,WNW,285,0.0,3.0,92,0.00,,,0.01,33,WeatherCatV1.21B27,2013-08-01 17:03:00,
2013-08-01 13:08:00,70.3,67.9,29.78,ESE,111,13.0,13.0,92,0.15,,,0.02,69,WeatherCatV1.21B27,2013-08-01 17:08:00,
2013-08-01 13:13:00,70.0,67.2,29.78,ENE,60,0.0,2.0,91,0.30,,,0.05,111,WeatherCatV1.21B27,2013-08-01 17:13:00,
2013-08-01 13:18:00,69.4,67.0,29.78,NW,306,1.0,2.0,92,0.10,,,0.05,91,WeatherCatV1.21B27,2013-08-01 17:18:00,
2013-08-01 13:23:00,68.7,66.3,29.79,East,98,1.0,7.0,92,0.06,,,0.05,44,WeatherCatV1.21B27,2013-08-01 17:23:00,
2013-08-01 13:28:00,68.1,65.1,29.79,ESE,117,1.0,6.0,90,0.04,,,0.05,35,WeatherCatV1.21B27,2013-08-01 17:28:00,
2013-08-01 13:33:00,67.7,64.7,29.79,East,96,5.0,7.0,90,0.00,,,0.05,44,WeatherCatV1.21B27,2013-08-01 17:33:00,
2013-08-01 13:38:00,67.4,64.4,29.79,SSE,152,0.0,5.0,90,0.00,,,0.05,47,WeatherCatV1.21B27,2013-08-01 17:38:00,
2013-08-01 13:43:00,67.2,64.5,29.79,WSW,241,0.0,0.0,91,0.00,,,0.06,97,WeatherCatV1.21B27,2013-08-01 17:43:00,
2013-08-01 13:48:00,67.2,65.1,29.79,SE,134,0.0,1.0,93,0.00,,,0.06,91,WeatherCatV1.21B27,2013-08-01 17:48:00,
2013-08-01 13:53:00,67.3,65.2,29.79,North,0,0.0,1.0,93,0.00,,,0.06,76,WeatherCatV1.21B27,2013-08-01 17:53:00,
2013-08-01 13:58:00,67.3,65.5,29.78,East,98,1.0,2.0,94,0.00,,,0.06,62,WeatherCatV1.21B27,2013-08-01 17:58:00,
2013-08-01 14:03:00,67.4,65.6,29.78,NE,49,0.0,1.0,94,0.00,,,0.06,47,WeatherCatV1.21B27,2013-08-01 18:03:00,
2013-08-01 14:08:00,67.4,65.6,29.78,SW,226,0.0,0.0,94,0.00,,,0.07,42,WeatherCatV1.21B27,2013-08-01 18:08:00,
2013-08-01 14:13:00,67.4,65.9,29.78,SE,145,0.0,0.0,95,0.00,,,0.07,39,WeatherCatV1.21B27,2013-08-01 18:13:00,
2013-08-01 14:18:00,67.4,65.9,29.78,SE,136,0.0,2.0,95,0.05,,,0.08,37,WeatherCatV1.21B27,2013-08-01 18:18:00,
2013-08-01 14:23:00,67.5,66.0,29.78,SE,135,0.0,4.0,95,0.05,,,0.08,35,WeatherCatV1.21B27,2013-08-01 18:23:00,
2013-08-01 14:28:00,67.6,66.1,29.78,SE,135,0.0,0.0,95,0.05,,,0.08,37,WeatherCatV1.21B27,2013-08-01 18:28:00,
2013-08-01 14:33:00,67.6,66.1,29.78,SE,138,2.0,5.0,95,0.04,,,0.09,30,WeatherCatV1.21B27,2013-08-01 18:33:00,
2013-08-01 14:38:00,67.5,66.0,29.78,WSW,250,2.0,2.0,95,0.10,,,0.10,40,WeatherCatV1.21B27,2013-08-01 18:38:00,
2013-08-01 14:43:00,67.3,65.8,29.78,SW,225,0.0,1.0,95,0.10,,,0.10,46,WeatherCatV1.21B27,2013-08-01 18:43:00,
2013-08-01 14:48:00,67.5,66.0,29.78,SW,225,0.0,0.0,95,0.06,,,0.10,30,WeatherCatV1.21B27,2013-08-01 18:48:00,
2013-08-01 14:53:00,67.4,65.9,29.78,SW,225,0.0,0.0,95,0.04,,,0.11,21,WeatherCatV1.21B27,2013-08-01 18:53:00,
2013-08-01 14:58:00,67.1,65.6,29.78,WNW,292,0.0,1.0,95,0.04,,,0.11,23,WeatherCatV1.21B27,2013-08-01 18:58:00,
2013-08-01 15:03:00,67.0,65.5,29.78,WNW,292,0.0,0.0,95,0.08,,,0.12,23,WeatherCatV1.21B27,2013-08-01 19:03:00,
2013-08-01 15:08:00,67.0,65.8,29.77,WNW,292,0.0,1.0,96,0.08,,,0.13,35,WeatherCatV1.21B27,2013-08-01 19:08:00,
2013-08-01 15:13:00,66.8,65.6,29.77,WNW,292,0.0,0.0,96,0.14,,,0.14,47,WeatherCatV1.21B27,2013-08-01 19:13:00,
2013-08-01 15:18:00,66.8,65.6,29.76,WNW,292,0.0,0.0,96,0.08,,,0.14,58,WeatherCatV1.21B27,2013-08-01 19:18:00,
2013-08-01 15:23:00,66.8,65.6,29.76,WNW,292,0.0,0.0,96,0.06,,,0.15,54,WeatherCatV1.21B27,2013-08-01 19:23:00,
2013-08-01 15:28:00,66.7,65.5,29.77,NNE,14,0.0,3.0,96,0.06,,,0.15,44,WeatherCatV1.21B27,2013-08-01 19:28:00,
2013-08-01 15:33:00,66.7,65.5,29.76,SE,132,0.0,2.0,96,0.04,,,0.15,42,WeatherCatV1.21B27,2013-08-01 19:33:00,
2013-08-01 15:38:00,66.8,65.6,29.76,SE,132,0.0,0.0,96,0.00,,,0.15,25,WeatherCatV1.21B27,2013-08-01 19:38:00,
2013-08-01 15:43:00,66.9,66.0,29.76,SE,132,0.0,0.0,97,0.00,,,0.15,14,WeatherCatV1.21B27,2013-08-01 19:43:00,
2013-08-01 15:48:00,66.8,65.9,29.76,SE,132,0.0,0.0,97,0.00,,,0.15,19,WeatherCatV1.21B27,2013-08-01 19:48:00,
2013-08-01 15:53:00,66.7,65.5,29.75,SE,132,0.0,0.0,96,0.00,,,0.16,16,WeatherCatV1.21B27,2013-08-01 19:53:00,
2013-08-01 15:58:00,66.7,65.8,29.76,NE,42,0.0,0.0,97,0.00,,,0.16,16,WeatherCatV1.21B27,2013-08-01 19:58:00,
2013-08-01 16:03:00,66.8,65.9,29.76,NE,42,0.0,0.0,97,0.19,,,0.18,12,WeatherCatV1.21B27,2013-08-01 20:03:00,
2013-08-01 16:08:00,66.8,65.9,29.76,NE,42,0.0,0.0,97,0.16,,,0.19,9,WeatherCatV1.21B27,2013-08-01 20:08:00,
2013-08-01 16:13:00,66.8,65.9,29.75,NE,42,0.0,0.0,97,0.09,,,0.20,21,WeatherCatV1.21B27,2013-08-01 20:13:00,
2013-08-01 16:18:00,66.8,65.9,29.74,NE,42,0.0,0.0,97,0.09,,,0.20,21,WeatherCatV1.21B27,2013-08-01 20:18:00,
2013-08-01 16:23:00,66.8,65.9,29.73,NE,42,0.0,0.0,97,0.06,,,0.20,19,WeatherCatV1.21B27,2013-08-01 20:23:00,
2013-08-01 16:28:00,66.8,65.9,29.73,NE,38,0.0,1.0,97,0.04,,,0.20,23,WeatherCatV1.21B27,2013-08-01 20:28:00,
2013-08-01 16:33:00,66.8,65.9,29.74,NE,38,0.0,0.0,97,0.04,,,0.21,32,WeatherCatV1.21B27,2013-08-01 20:33:00,
2013-08-01 16:38:00,66.8,65.9,29.74,WNW,287,0.0,1.0,97,0.04,,,0.21,39,WeatherCatV1.21B27,2013-08-01 20:38:00,
2013-08-01 16:43:00,66.7,65.8,29.74,WNW,287,0.0,0.0,97,0.04,,,0.21,39,WeatherCatV1.21B27,2013-08-01 20:43:00,
2013-08-01 16:46:00,66.8,65.9,29.74,West,262,0.0,1.0,97,0.04,,,0.21,39,WeatherCatV1.21B27,2013-08-01 20:46:00,
2013-08-01 16:52:00,66.6,65.7,29.74,SE,141,0.0,0.0,97,0.00,,,0.21,40,WeatherCatV1.21B27,2013-08-01 20:52:00,
2013-08-01 16:57:00,66.5,65.6,29.74,SE,141,0.0,0.0,97,0.00,,,0.21,40,WeatherCatV1.21B27,2013-08-01 20:57:00,
2013-08-01 17:02:00,66.5,65.6,29.74,SE,141,0.0,0.0,97,0.00,,,0.22,33,WeatherCatV1.21B27,2013-08-01 21:02:00,
2013-08-01 17:07:00,66.3,65.4,29.73,NE,43,0.0,0.0,97,0.00,,,0.22,35,WeatherCatV1.21B27,2013-08-01 21:07:00,
2013-08-01 17:12:00,66.3,65.4,29.73,NE,43,0.0,0.0,97,0.00,,,0.22,26,WeatherCatV1.21B27,2013-08-01 21:12:00,
2013-08-01 17:17:00,66.2,65.3,29.73,NE,43,0.0,0.0,97,0.00,,,0.22,23,WeatherCatV1.21B27,2013-08-01 21:17:00,
2013-08-01 17:22:00,66.1,65.2,29.73,West,281,0.0,1.0,97,0.00,,,0.22,21,WeatherCatV1.21B27,2013-08-01 21:22:00,
2013-08-01 17:27:00,66.1,65.2,29.73,West,281,0.0,0.0,97,0.00,,,0.22,11,WeatherCatV1.21B27,2013-08-01 21:27:00,
2013-08-01 17:32:00,66.1,65.2,29.73,West,281,0.0,0.0,97,0.00,,,0.22,35,WeatherCatV1.21B27,2013-08-01 21:32:00,
2013-08-01 17:37:00,66.2,65.3,29.73,West,281,0.0,0.0,97,0.00,,,0.22,53,WeatherCatV1.21B27,2013-08-01 21:37:00,
2013-08-01 17:42:00,66.3,65.4,29.72,West,281,0.0,0.0,97,0.00,,,0.22,63,WeatherCatV1.21B27,2013-08-01 21:42:00,
2013-08-01 17:47:00,66.4,65.5,29.72,West,281,0.0,0.0,97,0.00,,,0.22,63,WeatherCatV1.21B27,2013-08-01 21:47:00,
2013-08-01 17:52:00,66.5,65.6,29.72,NNE,17,0.0,0.0,97,0.00,,,0.22,54,WeatherCatV1.21B27,2013-08-01 21:52:00,
2013-08-01 17:57:00,66.6,65.7,29.72,NNE,17,0.0,0.0,97,0.00,,,0.22,40,WeatherCatV1.21B27,2013-08-01 21:57:00,
2013-08-01 18:02:00,66.7,65.8,29.72,East,96,0.0,0.0,97,0.00,,,0.22,28,WeatherCatV1.21B27,2013-08-01 22:02:00,
2013-08-01 18:07:00,66.8,65.9,29.72,East,96,0.0,0.0,97,0.00,,,0.22,14,WeatherCatV1.21B27,2013-08-01 22:07:00,
2013-08-01 18:12:00,66.8,65.9,29.72,East,101,1.0,1.0,97,0.00,,,0.22,12,WeatherCatV1.21B27,2013-08-01 22:12:00,
2013-08-01 18:17:00,66.9,66.0,29.72,East,101,0.0,0.0,97,0.00,,,0.22,23,WeatherCatV1.21B27,2013-08-01 22:17:00,
2013-08-01 18:22:00,67.0,66.1,29.72,East,101,0.0,1.0,97,0.00,,,0.22,14,WeatherCatV1.21B27,2013-08-01 22:22:00,
2013-08-01 18:27:00,67.1,66.2,29.72,SSW,192,0.0,0.0,97,0.00,,,0.22,9,WeatherCatV1.21B27,2013-08-01 22:27:00,
2013-08-01 18:32:00,67.2,66.6,29.72,SE,133,0.0,1.0,98,0.00,,,0.22,11,WeatherCatV1.21B27,2013-08-01 22:32:00,
2013-08-01 18:37:00,67.3,66.7,29.72,SSE,165,0.0,1.0,98,0.00,,,0.22,7,WeatherCatV1.21B27,2013-08-01 22:37:00,
2013-08-01 18:42:00,67.4,66.8,29.72,SSE,147,0.0,0.0,98,0.00,,,0.22,5,WeatherCatV1.21B27,2013-08-01 22:42:00,
2013-08-01 18:47:00,67.5,66.6,29.72,SSE,150,0.0,1.0,97,0.00,,,0.22,9,WeatherCatV1.21B27,2013-08-01 22:47:00,
2013-08-01 18:52:00,67.5,66.6,29.72,NW,311,0.0,1.0,97,0.00,,,0.22,11,WeatherCatV1.21B27,2013-08-01 22:52:00,
2013-08-01 18:57:00,67.5,66.6,29.73,East,87,1.0,1.0,97,0.00,,,0.22,11,WeatherCatV1.21B27,2013-08-01 22:57:00,
2013-08-01 19:02:00,67.5,66.6,29.73,NE,47,0.0,2.0,97,0.00,,,0.22,11,WeatherCatV1.21B27,2013-08-01 23:02:00,
2013-08-01 19:07:00,67.6,66.7,29.73,East,80,0.0,4.0,97,0.00,,,0.22,7,WeatherCatV1.21B27,2013-08-01 23:07:00,
2013-08-01 19:12:00,67.6,66.7,29.73,SW,227,0.0,1.0,97,0.00,,,0.22,5,WeatherCatV1.21B27,2013-08-01 23:12:00,
2013-08-01 19:17:00,67.7,66.8,29.73,South,178,0.0,1.0,97,0.00,,,0.22,9,WeatherCatV1.21B27,2013-08-01 23:17:00,
2013-08-01 19:22:00,67.7,66.8,29.72,NNE,24,0.0,0.0,97,0.00,,,0.22,5,WeatherCatV1.21B27,2013-08-01 23:22:00,
2013-08-01 19:27:00,67.8,67.2,29.72,SE,132,0.0,2.0,98,0.00,,,0.22,9,WeatherCatV1.21B27,2013-08-01 23:27:00,
2013-08-01 19:32:00,67.9,67.3,29.72,SE,136,0.0,1.0,98,0.00,,,0.22,21,WeatherCatV1.21B27,2013-08-01 23:32:00,
2013-08-01 19:37:00,68.0,67.4,29.72,ESE,122,0.0,2.0,98,0.00,,,0.22,11,WeatherCatV1.21B27,2013-08-01 23:37:00,
2013-08-01 19:42:00,68.1,67.5,29.72,ESE,107,0.0,4.0,98,0.00,,,0.23,7,WeatherCatV1.21B27,2013-08-01 23:42:00,
2013-08-01 19:47:00,68.2,67.6,29.73,East,100,1.0,2.0,98,0.00,,,0.23,5,WeatherCatV1.21B27,2013-08-01 23:47:00,
2013-08-01 19:52:00,68.4,67.8,29.72,SSE,148,0.0,6.0,98,0.00,,,0.23,5,WeatherCatV1.21B27,2013-08-01 23:52:00,
2013-08-01 19:57:00,68.5,67.9,29.72,SSW,202,0.0,3.0,98,0.00,,,0.23,5,WeatherCatV1.21B27,2013-08-01 23:57:00,
2013-08-01 20:02:00,68.6,68.0,29.72,ENE,69,1.0,1.0,98,0.00,,,0.23,0,WeatherCatV1.21B27,2013-08-02 00:02:00,
2013-08-01 20:07:00,68.7,68.1,29.72,ESE,102,4.0,4.0,98,0.00,,,0.23,0,WeatherCatV1.21B27,2013-08-02 00:07:00,
2013-08-01 20:12:00,68.8,68.2,29.72,ESE,123,0.0,2.0,98,0.00,,,0.23,0,WeatherCatV1.21B27,2013-08-02 00:12:00,
2013-08-01 20:17:00,68.9,68.3,29.73,WSW,246,2.0,3.0,98,0.00,,,0.23,0,WeatherCatV1.21B27,2013-08-02 00:17:00,
2013-08-01 20:22:00,69.0,68.4,29.73,South,169,4.0,4.0,98,1.01,,,0.25,0,WeatherCatV1.21B27,2013-08-02 00:22:00,
2013-08-01 20:27:00,69.0,68.4,29.72,East,100,0.0,0.0,98,0.56,,,0.32,0,WeatherCatV1.21B27,2013-08-02 00:27:00,
2013-08-01 20:32:00,69.0,68.4,29.72,SE,131,0.0,6.0,98,0.21,,,0.33,0,WeatherCatV1.21B27,2013-08-02 00:32:00,
2013-08-01 20:37:00,69.0,68.4,29.72,SE,131,0.0,0.0,98,0.08,,,0.33,0,WeatherCatV1.21B27,2013-08-02 00:37:00,
2013-08-01 20:42:00,69.0,68.4,29.72,SE,129,0.0,0.0,98,0.35,,,0.36,0,WeatherCatV1.21B27,2013-08-02 00:42:00,
2013-08-01 20:47:00,69.0,68.4,29.72,SE,130,0.0,1.0,98,0.09,,,0.36,0,WeatherCatV1.21B27,2013-08-02 00:47:00,
2013-08-01 20:52:00,68.9,68.3,29.72,ENE,68,0.0,4.0,98,0.05,,,0.36,0,WeatherCatV1.21B27,2013-08-02 00:52:00,
2013-08-01 20:57:00,68.9,68.3,29.72,SSE,149,0.0,2.0,98,0.05,,,0.37,0,WeatherCatV1.21B27,2013-08-02 00:57:00,
2013-08-01 21:02:00,69.0,68.4,29.71,SSE,161,0.0,0.0,98,0.08,,,0.38,0,WeatherCatV1.21B27,2013-08-02 01:02:00,
2013-08-01 21:07:00,69.0,68.4,29.71,ESE,111,2.0,2.0,98,0.14,,,0.39,0,WeatherCatV1.21B27,2013-08-02 01:07:00,
2013-08-01 21:12:00,69.0,68.4,29.72,SW,234,3.0,6.0,98,0.08,,,0.39,0,WeatherCatV1.21B27,2013-08-02 01:12:00,
2013-08-01 21:17:00,69.1,68.5,29.71,ESE,118,4.0,4.0,98,0.05,,,0.39,0,WeatherCatV1.21B27,2013-08-02 01:17:00,
2013-08-01 21:22:00,69.2,68.6,29.72,ESE,113,0.0,2.0,98,0.00,,,0.39,0,WeatherCatV1.21B27,2013-08-02 01:22:00,
2013-08-01 21:27:00,69.2,68.6,29.71,ESE,107,1.0,2.0,98,0.00,,,0.40,0,WeatherCatV1.21B27,2013-08-02 01:27:00,
2013-08-01 21:32:00,69.2,68.6,29.71,ESE,109,2.0,8.0,98,0.00,,,0.40,0,WeatherCatV1.21B27,2013-08-02 01:32:00,
2013-08-01 21:37:00,69.2,68.6,29.71,ESE,105,1.0,4.0,98,0.00,,,0.40,0,WeatherCatV1.21B27,2013-08-02 01:37:00,
2013-08-01 21:42:00,69.2,68.6,29.71,ESE,119,2.0,5.0,98,0.00,,,0.40,0,WeatherCatV1.21B27,2013-08-02 01:42:00,
2013-08-01 21:47:00,69.2,68.6,29.71,East,99,4.0,4.0,98,0.00,,,0.40,0,WeatherCatV1.21B27,2013-08-02 01:47:00,
2013-08-01 21:52:00,69.2,68.6,29.71,SSE,164,1.0,4.0,98,0.00,,,0.40,0,WeatherCatV1.21B27,2013-08-02 01:52:00,
2013-08-01 21:57:00,69.1,68.5,29.71,ESE,103,0.0,0.0,98,0.00,,,0.40,0,WeatherCatV1.21B27,2013-08-02 01:57:00,
2013-08-01 22:02:00,69.1,68.5,29.71,East,82,0.0,4.0,98,0.00,,,0.40,0,WeatherCatV1.21B27,2013-08-02 02:02:00,
2013-08-01 22:07:00,69.1,68.5,29.71,SW,216,0.0,3.0,98,0.00,,,0.40,0,WeatherCatV1.21B27,2013-08-02 02:07:00,
2013-08-01 22:12:00,69.1,68.5,29.71,ESE,102,0.0,5.0,98,0.00,,,0.40,0,WeatherCatV1.21B27,2013-08-02 02:12:00,
2013-08-01 22:17:00,69.0,68.4,29.70,East,88,0.0,1.0,98,0.00,,,0.40,0,WeatherCatV1.21B27,2013-08-02 02:17:00,
2013-08-01 22:22:00,69.0,68.4,29.70,South,188,1.0,5.0,98,0.00,,,0.40,0,WeatherCatV1.21B27,2013-08-02 02:22:00,
2013-08-01 22:27:00,68.9,68.3,29.70,ESE,111,0.0,1.0,98,0.00,,,0.40,0,WeatherCatV1.21B27,2013-08-02 02:27:00,
2013-08-01 22:32:00,68.9,68.3,29.70,SE,126,1.0,4.0,98,0.00,,,0.40,0,WeatherCatV1.21B27,2013-08-02 02:32:00,
2013-08-01 22:37:00,68.8,68.2,29.70,ESE,103,4.0,5.0,98,0.00,,,0.40,0,WeatherCatV1.21B27,2013-08-02 02:37:00,
2013-08-01 22:42:00,68.7,68.1,29.70,ESE,113,0.0,4.0,98,0.00,,,0.40,0,WeatherCatV1.21B27,2013-08-02 02:42:00,
2013-08-01 22:47:00,68.8,68.2,29.69,SE,126,2.0,4.0,98,0.00,,,0.40,0,WeatherCatV1.21B27,2013-08-02 02:47:00,
2013-08-01 22:52:00,68.8,68.2,29.69,SE,127,0.0,1.0,98,0.00,,,0.40,0,WeatherCatV1.21B27,2013-08-02 02:52:00,
2013-08-01 22:57:00,68.8,68.2,29.69,ESE,107,0.0,0.0,98,0.00,,,0.40,0,WeatherCatV1.21B27,2013-08-02 02:57:00,
2013-08-01 23:02:00,68.8,68.2,29.69,East,80,2.0,4.0,98,0.00,,,0.40,0,WeatherCatV1.21B27,2013-08-02 03:02:00,
2013-08-01 23:07:00,68.7,68.1,29.69,East,84,0.0,0.0,98,0.00,,,0.40,0,WeatherCatV1.21B27,2013-08-02 03:07:00,
2013-08-01 23:12:00,68.8,68.2,29.69,East,84,1.0,1.0,98,0.00,,,0.40,0,WeatherCatV1.21B27,2013-08-02 03:12:00,
2013-08-01 23:17:00,68.8,68.2,29.69,East,84,0.0,2.0,98,0.00,,,0.40,0,WeatherCatV1.21B27,2013-08-02 03:17:00,
2013-08-01 23:22:00,68.8,68.2,29.69,SE,125,0.0,1.0,98,0.00,,,0.40,0,WeatherCatV1.21B27,2013-08-02 03:22:00,
2013-08-01 23:27:00,68.8,68.2,29.69,ESE,110,1.0,4.0,98,0.00,,,0.40,0,WeatherCatV1.21B27,2013-08-02 03:27:00,
2013-08-01 23:32:00,68.8,68.2,29.69,South,171,0.0,1.0,98,0.00,,,0.40,0,WeatherCatV1.21B27,2013-08-02 03:32:00,
2013-08-01 23:37:00,68.8,68.2,29.69,ESE,117,2.0,2.0,98,0.00,,,0.40,0,WeatherCatV1.21B27,2013-08-02 03:37:00,
2013-08-01 23:42:00,68.9,68.3,29.69,SSW,213,2.0,2.0,98,0.00,,,0.40,0,WeatherCatV1.21B27,2013-08-02 03:42:00,
2013-08-01 23:47:00,68.9,68.3,29.69,SSE,156,0.0,1.0,98,0.00,,,0.40,0,WeatherCatV1.21B27,2013-08-02 03:47:00,
2013-08-01 23:52:00,68.9,68.3,29.69,East,93,1.0,6.0,98,0.00,,,0.40,0,WeatherCatV1.21B27,2013-08-02 03:52:00,
2013-08-01 23:57:00,69.0,68.4,29.69,East,89,1.0,2.0,98,0.00,,,0.40,0,WeatherCatV1.21B27,2013-08-02 03:57:00,